Time;durP1;ratioP1;P1;durP2;ratioP2;P2;SDS_P1;SDS_P2;PMS_P1;PMS_P2;Temp;Humidity;BMP_temperature;BMP_pressure;BME280_temperature;BME280_humidity;BME280_pressure;Samples;Min_cycle;Max_cycle;Signal;HPM_P1;HPM_P2
2022/09/19 00:01:45;;;;;;;0.38;0.38;;;8.20;99.90;;;7.50;100.00;97250.63;5066979;28;20366;-46
2022/09/19 00:04:16;;;;;;;2.83;0.30;;;8.20;99.90;;;7.47;100.00;97253.34;5072240;28;20027;-48
2022/09/19 00:06:45;;;;;;;1.35;0.30;;;8.10;99.90;;;7.42;100.00;97259.56;5073088;28;20139;-48
2022/09/19 00:09:15;;;;;;;0.30;0.30;;;8.10;99.90;;;7.39;100.00;97254.44;5063296;28;20511;-48
2022/09/19 00:11:43;;;;;;;0.82;0.30;;;8.10;99.90;;;7.34;100.00;97260.66;5069042;28;20051;-50
2022/09/19 00:14:14;;;;;;;1.38;0.30;;;8.00;99.90;;;7.31;100.00;97261.63;5071225;28;20275;-46
2022/09/19 00:16:44;;;;;;;0.90;0.20;;;8.00;99.90;;;7.21;100.00;97252.25;5073779;28;20555;-49
2022/09/19 00:19:14;;;;;;;0.47;0.20;;;7.90;99.90;;;7.13;100.00;97259.47;5067290;28;20093;-48
2022/09/19 00:21:43;;;;;;;0.82;0.40;;;7.80;99.90;;;7.01;100.00;97269.34;5070419;28;20028;-46
2022/09/19 00:27:05;;;;;;;1.08;0.28;;;7.60;99.90;;;6.78;100.00;97277.78;5070601;28;20134;-47
2022/09/19 00:29:37;;;;;;;0.25;0.20;;;7.50;99.90;;;6.67;100.00;97291.13;5074053;28;20383;-49
2022/09/19 00:32:07;;;;;;;0.82;0.30;;;7.40;99.90;;;6.60;100.00;97280.84;5085245;28;20106;-47
2022/09/19 00:34:33;;;;;;;1.65;0.30;;;7.30;99.90;;;6.56;100.00;97271.34;5074617;28;20036;-47
2022/09/19 00:36:59;;;;;;;0.70;0.30;;;7.30;99.90;;;6.56;100.00;97271.34;5075438;28;20039;-47
2022/09/19 00:39:25;;;;;;;2.92;0.30;;;7.20;99.90;;;6.49;100.00;97275.84;5070434;28;20024;-50
2022/09/19 00:41:51;;;;;;;0.90;0.20;;;7.20;99.90;;;6.45;100.00;97269.81;5069324;28;20031;-46
2022/09/19 00:44:22;;;;;;;1.20;0.30;;;7.10;99.90;;;6.40;100.00;97278.66;5069856;28;20119;-48
2022/09/19 00:46:59;;;;;;;0.32;0.13;;;7.10;99.90;;;6.28;100.00;97280.69;5067808;28;20122;-49
2022/09/19 00:49:29;;;;;;;1.02;0.28;;;7.00;99.90;;;6.24;100.00;97292.09;5070079;28;20402;-47
2022/09/19 00:52:02;;;;;;;1.00;0.20;;;6.90;99.90;;;6.22;100.00;97288.66;5065289;28;20130;-47
2022/09/19 00:54:40;;;;;;;1.23;0.10;;;6.90;99.90;;;6.18;100.00;97289.63;5075964;28;20228;-52
2022/09/19 00:57:08;;;;;;;0.57;0.20;;;6.90;99.90;;;6.17;100.00;97282.63;5074583;28;20028;-47
2022/09/19 00:59:37;;;;;;;0.30;0.30;;;6.90;99.90;;;6.13;100.00;97286.22;5070692;28;20066;-49
2022/09/19 01:02:06;;;;;;;0.17;0.10;;;6.80;99.90;;;6.13;100.00;97283.59;5083226;28;20043;-51
2022/09/19 01:04:35;;;;;;;0.30;0.17;;;6.80;99.90;;;6.07;100.00;97289.84;5074680;28;20037;-50
2022/09/19 01:08:01;;;;;;;0.25;0.10;;;6.80;99.90;;;6.02;100.00;97296.06;5070192;28;20063;-46
2022/09/19 01:11:09;;;;;;;0.20;0.20;;;6.70;99.90;;;5.95;100.00;97294.44;5073370;28;20055;-49
2022/09/19 01:13:59;;;;;;;0.32;0.20;;;6.70;99.90;;;5.91;100.00;97304.09;5086745;28;20641;-46
2022/09/19 01:16:37;;;;;;;0.20;0.20;;;6.60;99.90;;;5.93;100.00;97311.03;5086256;28;20038;-47
2022/09/19 01:19:47;;;;;;;0.22;0.20;;;6.60;99.90;;;5.97;100.00;97311.00;5085484;28;20064;-48
2022/09/19 01:22:51;;;;;;;0.20;0.20;;;6.60;99.90;;;5.97;100.00;97305.78;5086782;22;20142;-43
2022/09/19 01:25:35;;;;;;;0.20;0.20;;;6.60;99.90;;;5.92;100.00;97306.69;5070309;28;20039;-42
2022/09/19 01:28:20;;;;;;;0.30;0.17;;;6.60;99.90;;;5.91;100.00;97296.25;5069560;28;20025;-42
2022/09/19 01:31:18;;;;;;;1.55;0.30;;;6.60;99.90;;;5.93;100.00;97303.16;5070547;28;20216;-43
2022/09/19 01:34:14;;;;;;;0.28;0.28;;;6.60;99.90;;;5.87;100.00;97284.97;5088505;28;20036;-43
2022/09/19 01:36:58;;;;;;;0.28;0.20;;;6.60;99.90;;;5.86;100.00;97300.72;5092834;28;20089;-42
2022/09/19 01:39:29;;;;;;;0.90;0.50;;;6.60;99.90;;;5.93;100.00;97313.63;5094743;28;20023;-43
2022/09/19 01:41:58;;;;;;;0.20;0.20;;;6.60;99.90;;;5.90;100.00;97305.00;5091855;28;20035;-44
2022/09/19 01:44:26;;;;;;;1.15;0.40;;;6.60;99.90;;;5.86;100.00;97306.81;5094647;28;20119;-43
2022/09/19 01:47:04;;;;;;;2.47;0.50;;;6.60;99.90;;;6.00;100.00;97308.34;5091386;28;20133;-44
2022/09/19 01:50:05;;;;;;;0.73;0.35;;;6.60;99.90;;;6.00;100.00;97317.03;5098452;27;20035;-44
2022/09/19 01:52:49;;;;;;;1.75;0.60;;;6.70;99.90;;;6.03;100.00;97319.59;5098309;28;20050;-42
2022/09/19 01:55:26;;;;;;;5.38;0.75;;;6.70;99.90;;;6.01;100.00;97316.16;5098824;27;20399;-43
2022/09/19 01:58:11;;;;;;;0.65;0.50;;;6.70;99.90;;;6.04;100.00;97325.69;5091201;28;20107;-43
2022/09/19 02:00:49;;;;;;;0.82;0.50;;;6.70;99.90;;;6.02;100.00;97315.25;5090609;27;20027;-46
2022/09/19 02:04:06;;;;;;;0.82;0.45;;;6.70;99.90;;;5.94;100.00;97325.00;5076591;28;20024;-43
2022/09/19 02:06:48;;;;;;;1.20;0.50;;;6.70;99.90;;;5.99;100.00;97322.31;5095521;28;20030;-43
2022/09/19 02:09:40;;;;;;;0.90;0.40;;;6.70;99.90;;;6.01;100.00;97328.38;5091822;28;20031;-43
2022/09/19 02:12:09;;;;;;;3.88;0.98;;;6.70;99.90;;;5.85;100.00;97307.72;5089259;28;20151;-42
2022/09/19 02:14:39;;;;;;;3.33;0.57;;;6.70;99.90;;;5.80;100.00;97301.69;5087047;28;20062;-43
2022/09/19 02:17:13;;;;;;;4.05;0.60;;;6.70;99.90;;;5.93;100.00;97334.56;5084664;28;20035;-43
2022/09/19 02:19:54;;;;;;;1.08;0.40;;;6.70;99.90;;;5.90;100.00;97334.66;5087949;27;20594;-43
2022/09/19 02:22:32;;;;;;;1.25;0.50;;;6.60;99.90;;;5.91;100.00;97332.91;5092984;28;20028;-43
2022/09/19 02:25:05;;;;;;;4.43;0.60;;;6.60;99.90;;;5.97;100.00;97334.56;5088789;27;20031;-42
2022/09/19 02:27:40;;;;;;;1.90;0.50;;;6.60;99.90;;;5.96;100.00;97332.81;5089227;28;20027;-44
2022/09/19 02:30:08;;;;;;;4.30;0.55;;;6.60;99.90;;;5.92;100.00;97327.63;5095236;28;20039;-44
2022/09/19 02:32:35;;;;;;;4.53;0.60;;;6.70;99.90;;;5.89;100.00;97335.53;5090687;28;20035;-44
2022/09/19 02:35:03;;;;;;;3.20;0.70;;;6.60;99.90;;;5.88;100.00;97338.19;5089300;28;20077;-45
2022/09/19 02:37:35;;;;;;;1.40;0.65;;;6.60;99.90;;;5.88;100.00;97338.19;5087748;28;20045;-45
2022/09/19 02:40:20;;;;;;;4.68;0.80;;;6.60;99.90;;;5.91;100.00;97344.22;5087088;28;20492;-44
2022/09/19 02:43:04;;;;;;;2.08;0.60;;;6.60;99.90;;;5.74;100.00;97322.72;5088000;28;20028;-44
2022/09/19 02:45:44;;;;;;;3.13;0.65;;;6.60;99.90;;;5.97;100.00;97350.28;5089428;28;20508;-45
2022/09/19 02:48:30;;;;;;;4.95;0.77;;;6.70;99.90;;;5.97;100.00;97342.41;5089189;28;21966;-46
2022/09/19 02:51:24;;;;;;;2.45;0.75;;;6.70;99.90;;;5.96;100.00;97338.94;5087508;28;20050;-43
2022/09/19 02:53:57;;;;;;;5.15;0.70;;;6.70;99.90;;;5.95;100.00;97337.16;5082271;28;20074;-43
2022/09/19 02:56:33;;;;;;;1.50;0.65;;;6.60;99.90;;;5.89;100.00;97338.16;5088486;28;20084;-44
2022/09/19 02:59:09;;;;;;;2.28;0.60;;;6.60;99.90;;;5.90;100.00;97333.78;5085885;28;20361;-44
2022/09/19 03:01:38;;;;;;;2.50;0.85;;;6.60;99.90;;;5.91;100.00;97335.53;5088100;28;20036;-43
2022/09/19 03:04:14;;;;;;;4.07;0.63;;;6.60;99.90;;;5.86;100.00;97337.34;5093131;28;20519;-44
2022/09/19 03:06:57;;;;;;;2.17;0.68;;;6.60;99.90;;;5.84;100.00;97344.38;5086031;27;20027;-44
2022/09/19 03:09:28;;;;;;;2.15;0.60;;;6.60;99.90;;;5.83;100.00;97345.25;5088420;28;20027;-44
2022/09/19 03:12:05;;;;;;;0.82;0.52;;;6.50;99.90;;;5.77;100.00;97353.22;5091026;28;20084;-44
2022/09/19 03:14:32;;;;;;;6.63;0.85;;;6.50;99.90;;;5.75;100.00;97353.25;5092828;27;20092;-42
2022/09/19 03:17:00;;;;;;;1.70;0.70;;;6.50;99.90;;;5.76;100.00;97354.09;5087037;28;20034;-42
2022/09/19 03:19:27;;;;;;;4.75;0.80;;;6.50;99.90;;;5.74;100.00;97357.63;5092333;28;24153;-42
2022/09/19 03:21:54;;;;;;;2.92;0.52;;;6.40;99.90;;;5.76;100.00;97352.38;5094123;28;20036;-44
2022/09/19 03:24:22;;;;;;;6.07;0.50;;;6.50;99.90;;;5.85;100.00;97357.44;5094395;28;20384;-42
2022/09/19 03:26:48;;;;;;;3.22;0.65;;;6.60;99.90;;;5.92;100.00;97366.91;5092245;28;20492;-42
2022/09/19 03:29:15;;;;;;;5.57;1.55;;;6.60;99.90;;;6.04;100.00;97360.59;5094178;28;21111;-42
2022/09/19 03:31:45;;;;;;;1.92;0.70;;;6.70;99.90;;;6.06;100.00;97371.03;5095845;28;20023;-42
2022/09/19 03:34:12;;;;;;;1.67;0.73;;;6.80;99.90;;;6.05;100.00;97353.63;5091502;28;20035;-43
2022/09/19 03:36:40;;;;;;;3.15;0.95;;;6.80;99.90;;;6.05;100.00;97369.31;5092775;28;20084;-42
2022/09/19 03:39:06;;;;;;;3.58;0.70;;;6.70;99.90;;;5.99;100.00;97359.81;5092078;28;20328;-42
2022/09/19 03:41:32;;;;;;;2.60;0.75;;;6.80;99.90;;;6.18;100.00;97365.56;5093510;28;20038;-42
2022/09/19 03:44:01;;;;;;;6.00;1.05;;;6.80;99.90;;;6.23;100.00;97366.34;5089923;28;20023;-42
2022/09/19 03:46:30;;;;;;;3.58;0.75;;;6.90;99.90;;;6.10;100.00;97343.88;5089084;27;20031;-43
2022/09/19 03:48:56;;;;;;;4.63;0.90;;;7.00;99.90;;;6.32;100.00;97365.28;5085727;28;20035;-42
2022/09/19 03:51:23;;;;;;;5.82;0.80;;;7.00;99.90;;;6.34;100.00;97354.78;5083868;28;20496;-42
2022/09/19 03:53:49;;;;;;;4.13;1.02;;;7.10;99.90;;;6.35;100.00;97356.47;5085945;28;20047;-42
2022/09/19 03:56:16;;;;;;;3.20;0.77;;;7.10;99.90;;;6.43;100.00;97359.81;5086343;28;20027;-44
2022/09/19 03:58:43;;;;;;;3.22;0.68;;;7.20;99.90;;;6.31;100.00;97335.59;5091518;28;20029;-42
2022/09/19 04:01:12;;;;;;;6.25;0.90;;;7.20;99.90;;;6.55;100.00;97363.91;5092287;28;20527;-42
2022/09/19 04:03:38;;;;;;;7.28;0.90;;;7.20;99.90;;;6.56;100.00;97366.50;5095007;28;20523;-42
2022/09/19 04:06:05;;;;;;;3.88;0.90;;;7.30;99.90;;;6.60;100.00;97372.56;5086972;28;20043;-44
2022/09/19 04:08:31;;;;;;;6.03;1.00;;;7.30;99.90;;;6.68;100.00;97374.13;5093376;27;20282;-42
2022/09/19 04:10:59;;;;;;;4.63;0.90;;;7.40;99.90;;;6.72;100.00;97382.78;5098536;27;20066;-42
2022/09/19 04:13:25;;;;;;;6.45;1.08;;;7.40;99.90;;;6.74;100.00;97387.97;5096075;28;20032;-44
2022/09/19 04:15:51;;;;;;;3.58;1.00;;;7.50;99.90;;;6.72;100.00;97374.91;5093965;28;20035;-42
2022/09/19 04:18:18;;;;;;;9.00;1.10;;;7.50;99.90;;;6.79;100.00;97380.88;5096570;27;20031;-42
2022/09/19 04:20:50;;;;;;;4.25;0.90;;;7.50;99.90;;;6.88;100.00;97393.78;5095126;28;20027;-42
2022/09/19 04:23:18;;;;;;;3.97;0.70;;;7.60;99.90;;;6.86;100.00;97383.31;5098304;28;20053;-42
2022/09/19 04:25:46;;;;;;;4.18;1.00;;;7.60;99.90;;;6.91;100.00;97388.47;5096102;27;20036;-43
2022/09/19 04:28:14;;;;;;;7.25;1.10;;;7.60;99.90;;;6.97;100.00;97393.56;5095262;27;20042;-42
2022/09/19 04:30:41;;;;;;;7.85;1.17;;;7.60;99.90;;;6.99;100.00;97396.16;5094398;27;20674;-43
2022/09/19 04:33:10;;;;;;;5.53;0.90;;;7.70;99.90;;;7.02;100.00;97396.97;5097368;28;20042;-43
2022/09/19 04:35:37;;;;;;;8.68;1.10;;;7.70;99.90;;;6.99;100.00;97404.88;5087254;28;20019;-43
2022/09/19 04:38:04;;;;;;;3.53;0.90;;;7.70;99.90;;;7.04;100.00;97407.41;5084375;28;20035;-43
2022/09/19 04:40:30;;;;;;;4.75;0.80;;;7.70;99.90;;;7.01;100.00;97400.47;5096201;28;20477;-42
2022/09/19 04:42:57;;;;;;;3.40;0.93;;;7.70;99.90;;;7.07;100.00;97402.97;5095785;28;20032;-44
2022/09/19 04:45:23;;;;;;;13.02;1.25;;;7.80;99.90;;;7.11;100.00;97406.38;5088138;28;20051;-44
2022/09/19 04:47:49;;;;;;;9.63;1.48;;;7.80;99.90;;;7.15;100.00;97409.78;5086138;28;20424;-43
2022/09/19 04:50:17;;;;;;;4.40;0.90;;;7.80;99.90;;;7.22;100.00;97406.13;5081203;27;20450;-44
2022/09/19 04:52:43;;;;;;;5.90;1.00;;;7.90;99.90;;;7.16;100.00;97409.75;5085381;28;20630;-42
2022/09/19 04:55:09;;;;;;;9.77;1.08;;;7.80;99.90;;;7.19;100.00;97398.31;5089057;28;20307;-44
2022/09/19 04:57:35;;;;;;;7.15;0.93;;;7.90;99.90;;;7.24;100.00;97399.94;5088341;28;20031;-42
2022/09/19 05:00:03;;;;;;;9.55;1.08;;;7.90;99.90;;;7.30;100.00;97404.16;5094228;28;20561;-43
2022/09/19 05:02:30;;;;;;;6.07;1.17;;;7.90;99.90;;;7.28;100.00;97411.22;5080901;28;20043;-42
2022/09/19 05:04:55;;;;;;;9.38;1.23;;;8.00;99.90;;;7.30;100.00;97411.19;5083229;28;20032;-44
2022/09/19 05:07:28;;;;;;;4.55;0.77;;;8.00;99.90;;;7.35;100.00;97404.94;5081621;28;20032;-44
2022/09/19 05:09:54;;;;;;;9.20;1.20;;;8.00;99.90;;;7.36;100.00;97411.91;5079254;28;21172;-44
2022/09/19 05:12:20;;;;;;;12.80;1.95;;;8.00;99.90;;;7.39;100.00;97421.47;5076580;22;20102;-44
2022/09/19 05:14:46;;;;;;;7.85;1.23;;;8.10;99.90;;;7.43;100.00;97421.38;5074484;28;20040;-45
2022/09/19 05:17:12;;;;;;;12.07;1.17;;;8.10;99.90;;;7.44;100.00;97428.31;5068247;28;20040;-44
2022/09/19 05:19:38;;;;;;;10.30;1.55;;;8.10;99.90;;;7.46;100.00;97428.28;5074022;28;20031;-44
2022/09/19 05:22:03;;;;;;;7.55;1.20;;;8.20;99.90;;;7.50;100.00;97424.72;5090979;28;20039;-43
2022/09/19 05:24:29;;;;;;;9.02;1.30;;;8.20;99.90;;;7.52;100.00;97437.75;5092790;28;20019;-44
2022/09/19 05:26:56;;;;;;;7.85;1.30;;;8.20;99.90;;;7.53;100.00;97445.59;5092125;28;20031;-44
2022/09/19 05:29:22;;;;;;;7.13;1.50;;;8.20;99.90;;;7.56;100.00;97440.28;5096006;28;20143;-44
2022/09/19 05:31:48;;;;;;;6.32;1.05;;;8.20;99.90;;;7.58;100.00;97448.97;5096814;28;20028;-44
2022/09/19 05:34:14;;;;;;;6.13;1.25;;;8.20;99.90;;;7.49;100.00;97424.75;5098798;28;20039;-43
2022/09/19 05:36:40;;;;;;;7.93;1.55;;;8.30;99.90;;;7.62;100.00;97449.78;5085350;28;20069;-44
2022/09/19 05:39:06;;;;;;;10.50;1.40;;;8.30;99.90;;;7.67;100.00;97458.41;5088222;28;20028;-43
2022/09/19 05:41:33;;;;;;;5.18;1.30;;;8.30;99.90;;;7.73;100.00;97457.38;5090780;28;20960;-43
2022/09/19 05:43:59;;;;;;;5.90;1.30;;;8.40;99.90;;;7.78;100.00;97461.63;5091707;28;20034;-43
2022/09/19 05:46:24;;;;;;;9.45;1.23;;;8.40;99.90;;;7.79;100.00;97460.72;5092259;28;20032;-45
2022/09/19 05:48:50;;;;;;;6.65;1.25;;;8.50;99.90;;;7.88;100.00;97457.00;5092399;28;20470;-43
2022/09/19 05:51:16;;;;;;;15.13;1.45;;;8.50;99.90;;;7.78;100.00;97439.75;5094480;28;20567;-47
2022/09/19 05:53:55;;;;;;;9.35;1.40;;;8.60;99.90;;;7.97;100.00;97466.44;5097968;28;20036;-46
2022/09/19 05:56:21;;;;;;;5.50;1.30;;;8.60;99.90;;;7.95;100.00;97476.09;5094145;28;20319;-43
2022/09/19 05:58:47;;;;;;;6.80;1.42;;;8.70;99.90;;;8.05;100.00;97467.06;5098308;28;20377;-44
2022/09/19 06:01:14;;;;;;;8.65;1.42;;;8.70;99.90;;;8.13;100.00;97470.38;5098737;28;20027;-45
2022/09/19 06:03:40;;;;;;;8.98;1.23;;;8.80;99.90;;;8.14;100.00;97479.97;5095625;28;20051;-43
2022/09/19 06:06:13;;;;;;;9.98;1.50;;;8.80;99.90;;;8.18;100.00;97479.00;5098944;28;20305;-42
2022/09/19 06:08:40;;;;;;;8.82;1.65;;;8.80;99.90;;;8.22;100.00;97482.41;5096653;28;20032;-42
2022/09/19 06:11:09;;;;;;;7.10;1.17;;;8.90;99.90;;;8.29;100.00;97491.88;5094526;28;20129;-46
2022/09/19 06:16:20;;;;;;;10.05;1.35;;;9.00;99.90;;;8.31;100.00;97482.16;5089649;28;20042;-44
2022/09/19 06:18:46;;;;;;;6.63;1.00;;;9.00;99.90;;;8.45;100.00;97499.34;5094382;28;20032;-43
2022/09/19 06:21:12;;;;;;;5.80;1.40;;;9.10;99.90;;;8.54;100.00;97505.25;5096143;28;20024;-42
2022/09/19 06:23:39;;;;;;;7.03;1.33;;;9.20;99.90;;;8.60;100.00;97494.56;5093690;28;20035;-45
2022/09/19 06:26:05;;;;;;;5.15;1.15;;;9.30;99.90;;;8.68;100.00;97493.47;5096641;28;20039;-43
2022/09/19 06:28:31;;;;;;;5.97;1.08;;;9.40;99.90;;;8.71;100.00;97501.28;5092481;28;20050;-43
2022/09/19 06:31:04;;;;;;;7.13;1.20;;;9.40;99.90;;;8.71;100.00;97502.13;5093237;27;20370;-45
2022/09/19 06:33:31;;;;;;;5.30;1.30;;;9.40;99.90;;;8.80;100.00;97495.75;5094819;27;20152;-45
2022/09/19 06:36:01;;;;;;;10.05;1.30;;;9.50;99.90;;;8.86;100.00;97500.84;5093518;27;20024;-43
2022/09/19 06:38:27;;;;;;;10.55;1.67;;;9.50;99.90;;;8.94;100.00;97503.28;5096854;28;20023;-44
2022/09/19 06:40:53;;;;;;;10.38;1.27;;;9.60;99.90;;;8.91;100.00;97506.84;5096098;28;20028;-42
2022/09/19 06:43:19;;;;;;;9.07;1.60;;;9.60;99.90;;;8.98;100.00;97499.63;5100699;27;20077;-40
2022/09/19 06:45:46;;;;;;;5.88;1.40;;;9.60;99.90;;;9.07;100.00;97509.03;5097861;28;20287;-41
2022/09/19 06:48:11;;;;;;;6.97;1.55;;;9.80;99.90;;;9.06;100.00;97518.69;5098746;27;20035;-40
2022/09/19 06:50:37;;;;;;;5.35;1.25;;;9.80;99.90;;;9.13;100.00;97514.97;5094262;28;20028;-41
2022/09/19 06:53:03;;;;;;;10.45;1.92;;;9.80;99.90;;;9.07;100.00;97503.78;5092278;28;20027;-40
2022/09/19 06:55:30;;;;;;;7.05;1.48;;;9.80;99.90;;;9.16;100.00;97519.28;5098588;27;20583;-40
2022/09/19 06:57:58;;;;;;;10.43;1.80;;;9.90;99.90;;;9.23;100.00;97523.47;5093443;28;20045;-40
2022/09/19 07:00:27;;;;;;;12.40;1.40;;;9.90;99.90;;;9.29;100.00;97535.56;5088124;28;20027;-43
2022/09/19 07:03:00;;;;;;;4.15;0.90;;;10.00;99.90;;;9.41;100.00;97536.97;5090589;27;20028;-40
2022/09/19 07:05:31;;;;;;;10.57;1.30;;;10.00;99.90;;;9.39;100.00;97531.75;5079873;28;20034;-40
2022/09/19 07:07:57;;;;;;;5.93;1.35;;;10.10;99.90;;;9.45;100.00;97539.47;5095447;28;20137;-40
2022/09/19 07:10:23;;;;;;;10.85;1.63;;;10.10;99.90;;;9.54;100.00;97544.44;5084891;28;20736;-38
2022/09/19 07:13:01;;;;;;;8.93;1.30;;;10.20;99.90;;;9.52;100.00;97542.78;5088296;27;20035;-40
2022/09/19 07:15:28;;;;;;;7.75;1.13;;;10.20;99.90;;;9.58;100.00;97552.25;5089229;28;20050;-39
2022/09/19 07:17:57;;;;;;;6.30;1.38;;;10.20;99.90;;;9.63;100.00;97559.09;5089302;28;21334;-39
2022/09/19 07:20:24;;;;;;;3.83;1.25;;;10.30;99.90;;;9.71;100.00;97554.47;5090633;28;20072;-40
2022/09/19 07:23:00;;;;;;;3.47;1.00;;;10.30;99.90;;;9.81;100.00;97560.31;5090180;22;20616;-49
2022/09/19 07:25:28;;;;;;;5.43;1.35;;;10.40;99.90;;;9.66;100.00;97559.03;5067668;28;20187;-48
2022/09/19 07:27:59;;;;;;;6.63;1.10;;;10.40;99.90;;;9.76;100.00;97554.31;5074882;28;20040;-46
2022/09/19 07:30:25;;;;;;;6.72;1.50;;;10.50;99.90;;;9.83;100.00;97562.91;5069450;28;20032;-41
2022/09/19 07:32:57;;;;;;;6.20;1.60;;;10.50;99.90;;;9.86;100.00;97568.94;5085206;28;20035;-50
2022/09/19 07:35:30;;;;;;;6.57;1.42;;;10.60;99.90;;;9.87;100.00;97575.06;5089486;28;20398;-50
2022/09/19 07:37:56;;;;;;;12.73;1.42;;;10.60;99.90;;;9.95;100.00;97580.94;5088785;27;20087;-51
2022/09/19 07:40:22;;;;;;;8.05;1.67;;;10.60;99.90;;;9.94;100.00;97587.13;5087847;28;20039;-47
2022/09/19 07:42:50;;;;;;;8.68;1.70;;;10.60;99.90;;;9.93;100.00;97583.63;5087730;27;20034;-47
2022/09/19 07:45:17;;;;;;;12.85;1.40;;;10.60;99.90;;;9.88;100.00;97582.06;5084825;28;20028;-51
2022/09/19 07:47:47;;;;;;;7.50;1.63;;;10.60;99.90;;;9.86;100.00;97586.53;5087677;28;20040;-50
2022/09/19 07:50:17;;;;;;;5.35;1.10;;;10.60;99.90;;;9.85;100.00;97593.56;5088617;28;20514;-50
2022/09/19 07:52:46;;;;;;;12.05;1.83;;;10.60;99.90;;;9.91;100.00;97590.72;5087810;28;20038;-48
2022/09/19 07:55:13;;;;;;;10.48;1.60;;;10.60;99.90;;;9.88;100.00;97590.81;5087508;28;20024;-52
2022/09/19 07:57:54;;;;;;;9.18;1.48;;;10.70;99.90;;;10.08;100.00;97600.72;5087871;28;20035;-47
2022/09/19 08:00:20;;;;;;;7.10;1.45;;;10.70;99.90;;;10.15;100.00;97598.75;5085552;27;20322;-51
2022/09/19 08:03:12;;;;;;;7.50;1.42;;;10.80;99.90;;;10.27;100.00;97608.91;5085717;27;20032;-50
2022/09/19 08:05:41;;;;;;;11.60;1.67;;;11.00;99.90;;;10.34;100.00;97609.63;5087508;28;20024;-50
2022/09/19 08:08:10;;;;;;;11.23;1.90;;;11.00;99.90;;;10.41;100.00;97613.78;5089536;28;20059;-50
2022/09/19 08:10:40;;;;;;;8.75;1.60;;;11.10;99.90;;;10.48;100.00;97615.31;5085420;28;20110;-52
2022/09/19 08:13:08;;;;;;;6.95;1.35;;;11.20;99.90;;;10.49;100.00;97617.00;5089545;28;20140;-52
2022/09/19 08:15:35;;;;;;;5.97;1.83;;;11.20;99.90;;;10.55;100.00;97621.25;5088065;28;20040;-50
2022/09/19 08:18:08;;;;;;;6.28;1.40;;;11.20;99.90;;;10.50;100.00;97621.38;5090154;28;20178;-51
2022/09/19 08:20:36;;;;;;;10.43;1.35;;;11.20;99.90;;;10.56;100.00;97624.72;5084126;28;20027;-51
2022/09/19 08:23:09;;;;;;;8.55;1.60;;;11.30;99.90;;;10.63;100.00;97628.88;5090467;28;20422;-52
2022/09/19 08:25:42;;;;;;;5.68;1.50;;;11.30;99.90;;;10.79;100.00;97623.97;5084687;28;20516;-51
2022/09/19 08:28:09;;;;;;;8.55;1.27;;;11.40;99.90;;;10.97;100.00;97627.75;5088538;28;20036;-53
2022/09/19 08:30:35;;;;;;;10.48;1.67;;;11.60;99.90;;;11.02;100.00;97628.44;5093585;28;20035;-51
2022/09/19 08:33:02;;;;;;;5.95;1.20;;;11.70;99.90;;;11.11;100.00;97630.75;5082705;28;20035;-50
2022/09/19 08:35:30;;;;;;;13.05;2.10;;;11.80;99.90;;;11.13;100.00;97630.72;5091135;28;20056;-51
2022/09/19 08:37:58;;;;;;;8.70;1.60;;;11.90;99.90;;;11.36;100.00;97633.38;5088408;28;20183;-52
2022/09/19 08:40:28;;;;;;;8.52;1.50;;;12.10;99.90;;;11.59;100.00;97636.94;5083354;28;20037;-49
2022/09/19 08:43:01;;;;;;;7.88;2.25;;;12.30;99.90;;;11.57;100.00;97634.34;5085003;28;20524;-49
2022/09/19 08:46:01;;;;;;;5.50;1.48;;;12.40;99.90;;;11.75;100.00;97642.50;5084581;28;20036;-49
2022/09/19 08:48:45;;;;;;;11.07;1.73;;;12.50;99.90;;;11.92;100.00;97640.13;5086383;28;20584;-53
2022/09/19 08:51:19;;;;;;;11.25;1.52;;;12.60;99.90;;;12.10;100.00;97645.63;5085305;28;20159;-48
2022/09/19 08:53:53;;;;;;;8.88;1.73;;;12.80;99.90;;;12.16;99.36;97648.00;5087780;28;20036;-50
2022/09/19 08:56:19;;;;;;;11.68;2.55;;;12.90;99.90;;;11.92;99.19;97649.84;5085012;28;20024;-47
2022/09/19 08:58:54;;;;;;;8.27;1.85;;;12.70;99.90;;;11.91;99.34;97659.53;5086723;28;20634;-50
2022/09/19 09:01:21;;;;;;;10.07;2.08;;;12.60;99.90;;;11.80;100.00;97656.41;5082720;28;20095;-49
2022/09/19 09:04:23;;;;;;;10.93;1.63;;;12.50;99.90;;;11.70;100.00;97660.31;5091143;28;20036;-50
2022/09/19 09:07:27;;;;;;;5.20;1.60;;;12.40;99.90;;;11.59;100.00;97672.16;5076589;28;20050;-49
2022/09/19 09:10:29;;;;;;;9.68;1.60;;;12.30;99.90;;;11.54;100.00;97671.47;5086612;28;20122;-48
2022/09/19 09:13:25;;;;;;;9.90;2.23;;;12.20;99.90;;;11.60;100.00;97671.22;5089271;28;20032;-48
2022/09/19 09:16:16;;;;;;;11.40;1.50;;;12.20;99.90;;;11.59;100.00;97666.88;5082665;28;20038;-47
2022/09/19 09:19:19;;;;;;;6.03;1.38;;;12.30;99.90;;;11.74;100.00;97664.59;5085206;28;20188;-48
2022/09/19 09:22:04;;;;;;;7.85;1.83;;;12.40;99.90;;;11.77;100.00;97664.44;5084881;28;20039;-48
2022/09/19 09:24:38;;;;;;;5.10;1.50;;;12.50;99.90;;;11.77;98.73;97665.34;5086549;28;20063;-48
2022/09/19 09:27:13;;;;;;;9.40;1.65;;;12.50;99.90;;;11.81;100.00;97666.94;5095483;28;20205;-51
2022/09/19 09:29:47;;;;;;;6.45;1.20;;;12.50;99.90;;;11.88;100.00;97670.22;5084278;28;20139;-50
2022/09/19 09:32:22;;;;;;;6.45;1.48;;;12.50;99.90;;;11.90;100.00;97670.13;5087291;28;20032;-48
2022/09/19 09:35:26;;;;;;;7.47;1.40;;;12.60;99.90;;;11.84;99.45;97666.81;5079849;28;20404;-53
2022/09/19 09:38:08;;;;;;;9.15;1.75;;;12.60;99.90;;;11.97;100.00;97667.25;5084720;28;20044;-52
2022/09/19 09:44:27;;;;;;;7.78;1.27;;;12.80;99.90;;;12.13;100.00;97672.81;5086125;28;20034;-49
2022/09/19 09:47:26;;;;;;;8.45;1.60;;;12.80;99.90;;;12.11;100.00;97679.06;5053952;28;20062;-50
2022/09/19 09:50:34;;;;;;;6.38;1.30;;;12.80;99.90;;;12.13;99.18;97675.44;5084030;28;20488;-51
2022/09/19 09:53:29;;;;;;;9.77;1.40;;;12.80;99.90;;;12.16;98.70;97674.44;5082266;28;20500;-49
2022/09/19 09:56:27;;;;;;;8.43;1.48;;;12.90;99.90;;;12.44;100.00;97687.47;5084743;28;20130;-47
2022/09/19 10:05:17;;;;;;;4.22;1.13;;;13.50;99.90;;;13.13;90.00;97681.09;5085499;27;20061;-51
2022/09/19 10:07:46;;;;;;;5.10;1.15;;;13.80;99.90;;;13.23;85.41;97685.06;5085053;28;20023;-52
2022/09/19 10:10:17;;;;;;;2.80;0.85;;;14.00;99.90;;;13.27;84.99;97676.06;5097331;28;20531;-52
2022/09/19 10:12:50;;;;;;;7.72;1.30;;;14.10;99.90;;;13.30;86.47;97675.09;5078940;28;20096;-49
2022/09/19 10:15:23;;;;;;;6.72;1.60;;;14.10;99.90;;;13.54;89.89;97679.31;5094259;27;20028;-52
2022/09/19 10:17:55;;;;;;;;;;;14.20;99.90;;;13.67;84.28;97673.47;5114515;27;20030;-52
2022/09/19 10:20:33;;;;;;;4.75;1.30;;;14.40;99.90;;;13.82;86.63;97670.13;5097678;27;19943;-52
2022/09/19 10:22:59;;;;;;;6.68;1.25;;;14.60;99.90;;;14.03;87.89;97676.25;5098736;27;20081;-50
2022/09/19 10:25:26;;;;;;;4.30;1.40;;;14.70;99.90;;;14.09;85.99;97673.31;5093739;28;20028;-50
2022/09/19 10:27:53;;;;;;;5.35;1.30;;;14.80;99.90;;;14.15;85.64;97669.50;5096588;28;20036;-50
2022/09/19 10:30:27;;;;;;;4.57;1.15;;;14.80;99.90;;;14.00;82.06;97675.50;5098592;28;20491;-49
2022/09/19 10:32:54;;;;;;;6.68;1.45;;;14.70;99.90;;;13.83;84.63;97671.00;5093160;28;20544;-51
2022/09/19 10:35:27;;;;;;;5.25;1.25;;;14.60;99.90;;;13.79;90.02;97667.63;5096524;27;20154;-48
2022/09/19 10:38:12;;;;;;;3.78;1.30;;;14.60;99.90;;;13.86;88.57;97674.34;5099990;28;20039;-50
2022/09/19 10:40:58;;;;;;;7.32;1.20;;;14.60;99.90;;;13.87;84.02;97670.78;5091952;28;20519;-50
2022/09/19 10:43:41;;;;;;;4.45;1.10;;;14.60;99.90;;;14.01;86.43;97664.84;5097924;28;20142;-52
2022/09/19 10:46:15;;;;;;;7.13;1.23;;;14.60;99.90;;;14.12;86.62;97666.97;5093672;28;20062;-50
2022/09/19 10:48:54;;;;;;;2.63;1.13;;;14.70;99.90;;;14.22;87.45;97668.28;5089602;27;20046;-49
2022/09/19 10:51:21;;;;;;;5.65;1.10;;;14.70;99.90;;;14.19;84.65;97665.75;5094480;28;20089;-49
2022/09/19 10:53:55;;;;;;;5.65;1.10;;;14.70;99.90;;;13.89;80.79;97663.63;5092730;27;20055;-50
2022/09/19 10:56:26;;;;;;;3.63;1.30;;;14.80;99.90;;;14.13;80.57;97660.75;5108073;27;20057;-49
2022/09/19 10:58:59;;;;;;;5.43;1.38;;;14.80;99.90;;;14.23;83.56;97661.16;5095722;27;20032;-51
2022/09/19 11:01:26;;;;;;;4.95;0.80;;;14.90;99.90;;;14.00;79.69;97665.78;5095818;27;20480;-49
2022/09/19 11:04:21;;;;;;;6.20;1.10;;;14.80;99.90;;;14.02;83.51;97663.91;5096655;27;20028;-49